Time;durP1;ratioP1;P1;durP2;ratioP2;P2;SDS_P1;SDS_P2;PMS_P1;PMS_P2;Temp;Humidity;BMP_temperature;BMP_pressure;BME280_temperature;BME280_humidity;BME280_pressure;Samples;Min_cycle;Max_cycle;Signal;HPM_P1;HPM_P2
2021/07/17 00:01:37;;;;;;;47.78;10.30;;;;;;;;;;5075938;28;20481;-88
2021/07/17 00:04:04;;;;;;;38.72;10.05;;;;;;;;;;5087164;28;20052;-87
2021/07/17 00:06:50;;;;;;;43.80;10.10;;;;;;;;;;5084823;28;20063;-87
2021/07/17 00:09:17;;;;;;;42.78;10.13;;;;;;;;;;5069027;28;20087;-87
2021/07/17 00:11:44;;;;;;;62.53;12.60;;;;;;;;;;5075995;28;20044;-86
2021/07/17 00:14:10;;;;;;;62.35;12.07;;;;;;;;;;5079870;28;20049;-87
2021/07/17 00:16:37;;;;;;;48.28;11.15;;;;;;;;;;5074878;28;20074;-87
2021/07/17 00:19:04;;;;;;;61.15;12.55;;;;;;;;;;5072415;28;20049;-87
2021/07/17 00:21:32;;;;;;;54.17;11.48;;;;;;;;;;5071786;28;20059;-87
2021/07/17 00:23:59;;;;;;;65.65;12.30;;;;;;;;;;5070928;28;20110;-87
2021/07/17 00:26:25;;;;;;;43.25;10.95;;;;;;;;;;5072180;28;20052;-86
2021/07/17 00:28:52;;;;;;;46.80;11.07;;;;;;;;;;5073705;28;20107;-87
2021/07/17 00:31:19;;;;;;;49.67;10.65;;;;;;;;;;5072572;28;20351;-86
2021/07/17 00:33:46;;;;;;;37.95;11.15;;;;;;;;;;5073133;28;20131;-86
2021/07/17 00:36:14;;;;;;;52.78;11.80;;;;;;;;;;5072802;28;20569;-86
2021/07/17 00:38:41;;;;;;;48.28;11.98;;;;;;;;;;5072152;28;20048;-86
2021/07/17 00:41:07;;;;;;;57.47;12.65;;;;;;;;;;5070575;28;20052;-86
2021/07/17 00:43:35;;;;;;;40.67;11.43;;;;;;;;;;5072338;28;20056;-87
2021/07/17 00:46:04;;;;;;;41.83;11.93;;;;;;;;;;5073823;28;20052;-87
2021/07/17 00:48:31;;;;;;;47.80;11.80;;;;;;;;;;5072037;28;20496;-87
2021/07/17 00:50:57;;;;;;;37.95;11.07;;;;;;;;;;5072711;28;20048;-86
2021/07/17 00:53:27;;;;;;;55.67;12.63;;;;;;;;;;5074194;28;20145;-86
2021/07/17 00:55:54;;;;;;;49.75;11.70;;;;;;;;;;5070560;28;20048;-86
2021/07/17 00:58:22;;;;;;;57.45;13.77;;;;;;;;;;5071171;28;20052;-86
2021/07/17 01:00:51;;;;;;;47.22;11.80;;;;;;;;;;5071215;28;20421;-86
2021/07/17 01:03:19;;;;;;;44.90;11.77;;;;;;;;;;5054102;28;20060;-86
2021/07/17 01:05:47;;;;;;;41.33;12.73;;;;;;;;;;5072840;28;20058;-86
2021/07/17 01:08:17;;;;;;;40.83;11.60;;;;;;;;;;5071595;28;20163;-86
2021/07/17 01:10:44;;;;;;;42.70;11.77;;;;;;;;;;5072807;28;20052;-86
2021/07/17 01:13:11;;;;;;;37.63;11.68;;;;;;;;;;5073245;28;20048;-87
2021/07/17 01:15:37;;;;;;;39.35;10.88;;;;;;;;;;5072581;28;20116;-86
2021/07/17 01:18:05;;;;;;;54.55;13.07;;;;;;;;;;5072191;28;20156;-86
2021/07/17 01:20:32;;;;;;;51.72;13.20;;;;;;;;;;5057270;28;20051;-87
2021/07/17 01:23:00;;;;;;;47.95;11.48;;;;;;;;;;5076379;28;20199;-86
2021/07/17 01:25:29;;;;;;;50.10;12.18;;;;;;;;;;5057237;28;20063;-86
2021/07/17 01:27:56;;;;;;;54.55;12.30;;;;;;;;;;5057597;28;20188;-86
2021/07/17 01:30:25;;;;;;;43.92;11.45;;;;;;;;;;5058798;28;20147;-86
2021/07/17 01:32:52;;;;;;;40.08;11.63;;;;;;;;;;5059443;28;20249;-86
2021/07/17 01:35:19;;;;;;;41.08;12.27;;;;;;;;;;5076557;28;20171;-86
2021/07/17 01:37:46;;;;;;;54.70;12.75;;;;;;;;;;5061475;28;20049;-86
2021/07/17 01:40:19;;;;;;;38.67;11.70;;;;;;;;;;5077513;28;20053;-86
2021/07/17 01:42:50;;;;;;;48.08;12.32;;;;;;;;;;5061310;28;20045;-86
2021/07/17 01:45:31;;;;;;;48.00;11.30;;;;;;;;;;5061174;28;20202;-86
2021/07/17 01:47:58;;;;;;;44.03;11.82;;;;;;;;;;5079362;28;20048;-86
2021/07/17 01:50:26;;;;;;;52.85;13.60;;;;;;;;;;5063840;28;20052;-86
2021/07/17 01:52:53;;;;;;;46.42;12.43;;;;;;;;;;5064624;28;20114;-86
2021/07/17 01:55:20;;;;;;;48.00;11.63;;;;;;;;;;5048109;28;20059;-86
2021/07/17 01:57:47;;;;;;;48.50;12.75;;;;;;;;;;5043333;28;20049;-86
2021/07/17 02:00:14;;;;;;;53.53;12.85;;;;;;;;;;5040635;28;20110;-86
2021/07/17 02:02:42;;;;;;;36.05;10.80;;;;;;;;;;5056079;28;20379;-86
2021/07/17 02:05:10;;;;;;;43.70;12.15;;;;;;;;;;5039120;28;20049;-86
2021/07/17 02:07:36;;;;;;;49.38;12.77;;;;;;;;;;5039967;28;20040;-86
2021/07/17 02:10:05;;;;;;;53.75;12.48;;;;;;;;;;5057814;28;20549;-86
2021/07/17 02:12:32;;;;;;;46.22;12.05;;;;;;;;;;5078338;28;20059;-86
2021/07/17 02:14:58;;;;;;;43.78;11.30;;;;;;;;;;5075546;28;20048;-86
2021/07/17 02:17:25;;;;;;;33.45;11.63;;;;;;;;;;5077122;28;20397;-86
2021/07/17 02:19:52;;;;;;;43.88;11.60;;;;;;;;;;5077966;28;20439;-86
2021/07/17 02:22:19;;;;;;;44.72;11.10;;;;;;;;;;5076744;28;20059;-86
2021/07/17 02:24:47;;;;;;;37.63;11.07;;;;;;;;;;5076844;28;20455;-87
2021/07/17 02:27:13;;;;;;;46.35;12.60;;;;;;;;;;5059228;28;20045;-87
2021/07/17 02:29:41;;;;;;;35.63;10.38;;;;;;;;;;5061360;28;20420;-87
2021/07/17 02:32:07;;;;;;;36.28;10.40;;;;;;;;;;5078717;28;20189;-87
2021/07/17 02:34:34;;;;;;;40.92;10.20;;;;;;;;;;5058537;28;20041;-86
2021/07/17 02:37:01;;;;;;;37.72;10.60;;;;;;;;;;5057602;28;20333;-85
2021/07/17 02:39:41;;;;;;;37.28;10.43;;;;;;;;;;5040124;28;20057;-85
2021/07/17 02:42:12;;;;;;;45.50;10.80;;;;;;;;;;5041143;28;20106;-86
2021/07/17 02:44:41;;;;;;;47.97;11.70;;;;;;;;;;5039865;28;20182;-86
2021/07/17 02:47:09;;;;;;;33.25;9.88;;;;;;;;;;5038194;28;20041;-86
2021/07/17 02:49:46;;;;;;;45.85;10.82;;;;;;;;;;5029669;28;20154;-88
2021/07/17 02:55:52;;;;;;;39.50;11.23;;;;;;;;;;4886574;29;20051;-86
2021/07/17 02:58:33;;;;;;;44.72;11.48;;;;;;;;;;4958614;28;20227;-87
2021/07/17 03:01:19;;;;;;;40.28;10.32;;;;;;;;;;5037059;28;20075;-86
2021/07/17 03:03:47;;;;;;;42.17;11.10;;;;;;;;;;5056394;28;20053;-86
2021/07/17 03:06:14;;;;;;;39.10;10.57;;;;;;;;;;5060376;28;20052;-86
2021/07/17 03:08:44;;;;;;;41.97;11.68;;;;;;;;;;5049980;28;20191;-86
2021/07/17 03:11:12;;;;;;;36.42;10.15;;;;;;;;;;5058660;28;20286;-87
2021/07/17 03:13:41;;;;;;;39.13;9.05;;;;;;;;;;5076227;28;20053;-87
2021/07/17 03:16:08;;;;;;;27.80;9.23;;;;;;;;;;5060274;28;20076;-87
2021/07/17 03:18:35;;;;;;;24.25;8.43;;;;;;;;;;5052638;28;20079;-86
2021/07/17 03:21:01;;;;;;;29.65;8.27;;;;;;;;;;5059478;28;20083;-85
2021/07/17 03:23:29;;;;;;;30.05;7.68;;;;;;;;;;5067453;28;20175;-87
2021/07/17 03:26:00;;;;;;;26.92;6.80;;;;;;;;;;5074901;28;20040;-86
2021/07/17 03:28:27;;;;;;;19.27;6.40;;;;;;;;;;5076604;28;20102;-86
2021/07/17 03:30:53;;;;;;;22.20;6.13;;;;;;;;;;5076366;28;20040;-86
2021/07/17 03:33:30;;;;;;;22.35;5.10;;;;;;;;;;5076985;28;20048;-86
2021/07/17 03:35:57;;;;;;;10.00;3.92;;;;;;;;;;5067828;28;20265;-86
2021/07/17 03:38:26;;;;;;;11.63;3.53;;;;;;;;;;5058624;28;20083;-86
2021/07/17 03:40:53;;;;;;;12.23;3.15;;;;;;;;;;5058360;28;20099;-86
2021/07/17 03:43:21;;;;;;;8.65;2.90;;;;;;;;;;5057531;28;20083;-87
2021/07/17 03:45:48;;;;;;;10.82;2.92;;;;;;;;;;5057091;28;20075;-87
2021/07/17 03:48:16;;;;;;;7.78;2.85;;;;;;;;;;5059690;28;20053;-87
2021/07/17 03:50:45;;;;;;;7.22;2.25;;;;;;;;;;5069654;28;20075;-87
2021/07/17 03:53:13;;;;;;;6.53;2.30;;;;;;;;;;5069297;28;20064;-87
2021/07/17 03:55:39;;;;;;;5.25;2.20;;;;;;;;;;5065054;28;20049;-87
2021/07/17 03:58:07;;;;;;;8.27;2.20;;;;;;;;;;5060821;28;20333;-86
2021/07/17 04:00:33;;;;;;;6.38;2.42;;;;;;;;;;5077446;28;20071;-85
2021/07/17 04:03:04;;;;;;;7.78;2.10;;;;;;;;;;5075474;28;20319;-86
2021/07/17 04:05:31;;;;;;;7.90;2.20;;;;;;;;;;5077450;28;20154;-85
2021/07/17 04:07:58;;;;;;;8.15;1.70;;;;;;;;;;5066651;28;20131;-85
2021/07/17 04:10:27;;;;;;;6.85;1.83;;;;;;;;;;5083504;28;20121;-85
2021/07/17 04:13:04;;;;;;;8.93;2.00;;;;;;;;;;5083914;28;20056;-85
2021/07/17 04:15:32;;;;;;;5.93;2.03;;;;;;;;;;5075927;28;20102;-87
2021/07/17 04:18:01;;;;;;;8.43;2.83;;;;;;;;;;5067657;28;20108;-87
2021/07/17 04:20:28;;;;;;;7.88;1.55;;;;;;;;;;5079532;28;20117;-87
2021/07/17 04:22:55;;;;;;;10.63;1.98;;;;;;;;;;5076702;28;20079;-86
2021/07/17 04:25:24;;;;;;;12.20;2.60;;;;;;;;;;5077161;28;20236;-86
2021/07/17 04:27:55;;;;;;;9.15;2.42;;;;;;;;;;5075567;28;20051;-85
2021/07/17 04:30:23;;;;;;;10.95;1.92;;;;;;;;;;5075057;28;20067;-85
2021/07/17 04:32:50;;;;;;;7.18;2.03;;;;;;;;;;5074514;28;20044;-85
2021/07/17 04:35:16;;;;;;;7.68;2.00;;;;;;;;;;5072118;28;20092;-86
2021/07/17 04:37:43;;;;;;;7.82;1.80;;;;;;;;;;5075261;28;20048;-85
2021/07/17 04:40:10;;;;;;;8.48;1.80;;;;;;;;;;5074800;28;20048;-85
2021/07/17 04:42:37;;;;;;;5.20;1.67;;;;;;;;;;5074554;28;20397;-86
2021/07/17 04:45:03;;;;;;;8.65;2.20;;;;;;;;;;5074638;28;20057;-86
2021/07/17 04:47:30;;;;;;;7.28;2.05;;;;;;;;;;5074787;28;20109;-85
2021/07/17 04:50:02;;;;;;;7.05;1.88;;;;;;;;;;5073551;28;20044;-86
2021/07/17 04:52:30;;;;;;;5.82;1.80;;;;;;;;;;5091024;28;20048;-85
2021/07/17 04:54:57;;;;;;;6.20;1.70;;;;;;;;;;5090026;28;20056;-86
2021/07/17 04:57:24;;;;;;;7.47;1.90;;;;;;;;;;5098478;28;20062;-86
2021/07/17 05:00:00;;;;;;;9.27;2.10;;;;;;;;;;5103996;28;20182;-86
2021/07/17 05:02:54;;;;;;;6.95;2.22;;;;;;;;;;5101216;28;20454;-87
2021/07/17 05:05:48;;;;;;;7.78;1.70;;;;;;;;;;5099114;28;20103;-87
2021/07/17 05:08:23;;;;;;;8.57;1.98;;;;;;;;;;5086882;28;20106;-87
2021/07/17 05:11:04;;;;;;;9.57;2.10;;;;;;;;;;5083261;28;20139;-86
2021/07/17 05:13:34;;;;;;;9.02;2.00;;;;;;;;;;5074917;28;20388;-86
2021/07/17 05:16:06;;;;;;;9.68;1.77;;;;;;;;;;5075364;28;20052;-86
2021/07/17 05:18:35;;;;;;;6.47;1.90;;;;;;;;;;5077066;28;20045;-86
2021/07/17 05:21:02;;;;;;;12.50;2.40;;;;;;;;;;5079664;28;20052;-86
2021/07/17 05:23:30;;;;;;;15.55;2.33;;;;;;;;;;5084603;28;20048;-86
2021/07/17 05:25:57;;;;;;;12.75;2.08;;;;;;;;;;5078208;28;20064;-86
2021/07/17 05:28:28;;;;;;;9.30;2.33;;;;;;;;;;5074659;28;20075;-87
2021/07/17 05:30:55;;;;;;;12.27;2.10;;;;;;;;;;5074720;28;20055;-87
2021/07/17 05:33:22;;;;;;;7.47;2.05;;;;;;;;;;5074462;28;20316;-86
2021/07/17 05:35:52;;;;;;;16.90;2.40;;;;;;;;;;5074528;28;20406;-86
2021/07/17 05:38:19;;;;;;;14.77;2.20;;;;;;;;;;5072737;28;20120;-86
2021/07/17 05:40:46;;;;;;;12.25;2.45;;;;;;;;;;5073167;28;20131;-86
2021/07/17 05:43:15;;;;;;;8.15;2.28;;;;;;;;;;5052510;28;20140;-86
2021/07/17 05:45:47;;;;;;;8.75;1.83;;;;;;;;;;5052797;28;20049;-86
2021/07/17 05:48:14;;;;;;;7.75;2.00;;;;;;;;;;5053275;28;20107;-86
2021/07/17 05:50:40;;;;;;;12.02;2.35;;;;;;;;;;5054503;28;20425;-86
2021/07/17 05:53:10;;;;;;;9.20;2.38;;;;;;;;;;5055147;28;20099;-86
2021/07/17 05:55:37;;;;;;;9.13;2.08;;;;;;;;;;5053890;28;20045;-86
2021/07/17 05:58:04;;;;;;;8.48;1.60;;;;;;;;;;5053665;28;20079;-86
2021/07/17 06:00:31;;;;;;;7.32;2.13;;;;;;;;;;5068841;28;20049;-86
2021/07/17 06:02:58;;;;;;;11.20;1.95;;;;;;;;;;5053434;28;20169;-86
2021/07/17 06:05:25;;;;;;;11.18;2.58;;;;;;;;;;5062965;28;20503;-87
2021/07/17 06:07:53;;;;;;;6.57;1.80;;;;;;;;;;5078085;28;20052;-86
2021/07/17 06:10:20;;;;;;;13.75;3.22;;;;;;;;;;5076481;28;20319;-87
2021/07/17 06:12:46;;;;;;;9.32;2.15;;;;;;;;;;5075180;28;20107;-87
2021/07/17 06:15:14;;;;;;;9.85;2.17;;;;;;;;;;5075335;28;20067;-85
2021/07/17 06:17:40;;;;;;;9.18;2.17;;;;;;;;;;5075796;28;20060;-85
2021/07/17 06:20:07;;;;;;;9.48;2.20;;;;;;;;;;5074958;28;20103;-86
2021/07/17 06:22:34;;;;;;;8.95;2.83;;;;;;;;;;5075316;28;20040;-85
2021/07/17 06:25:04;;;;;;;6.90;2.13;;;;;;;;;;5075585;28;20048;-85
2021/07/17 06:27:31;;;;;;;12.02;2.20;;;;;;;;;;5075027;28;20048;-86
2021/07/17 06:29:57;;;;;;;9.13;2.10;;;;;;;;;;5075189;28;20036;-85
2021/07/17 06:32:25;;;;;;;6.40;1.60;;;;;;;;;;5072993;28;20076;-85
2021/07/17 06:34:57;;;;;;;8.43;1.77;;;;;;;;;;5075843;28;20143;-86
2021/07/17 06:37:25;;;;;;;9.70;2.08;;;;;;;;;;5076881;28;20085;-87
2021/07/17 06:39:52;;;;;;;6.90;1.85;;;;;;;;;;5078689;28;20472;-85
2021/07/17 06:42:28;;;;;;;10.35;2.13;;;;;;;;;;5073899;28;20056;-86
2021/07/17 06:44:59;;;;;;;9.18;2.30;;;;;;;;;;5073798;28;20052;-87
2021/07/17 06:47:29;;;;;;;10.07;1.63;;;;;;;;;;5075247;28;20146;-85
2021/07/17 06:49:58;;;;;;;9.48;1.67;;;;;;;;;;5076145;28;20063;-87
2021/07/17 06:52:31;;;;;;;12.77;1.90;;;;;;;;;;5080011;28;20087;-86
2021/07/17 06:54:58;;;;;;;7.63;1.88;;;;;;;;;;5081565;28;20304;-86
2021/07/17 06:57:50;;;;;;;8.57;1.80;;;;;;;;;;5084019;28;20450;-87
2021/07/17 07:00:17;;;;;;;5.90;1.83;;;;;;;;;;5081206;28;20060;-87
2021/07/17 07:02:51;;;;;;;4.25;1.70;;;;;;;;;;5080953;28;20079;-87
2021/07/17 07:05:20;;;;;;;6.53;1.75;;;;;;;;;;5080267;28;20266;-87
2021/07/17 07:07:56;;;;;;;7.60;1.42;;;;;;;;;;5076116;28;20061;-88
2021/07/17 07:10:23;;;;;;;6.20;1.60;;;;;;;;;;5077053;28;20482;-87
2021/07/17 07:12:51;;;;;;;10.25;1.63;;;;;;;;;;5074396;28;20126;-86
2021/07/17 07:15:18;;;;;;;5.82;1.23;;;;;;;;;;5074701;28;20052;-86
2021/07/17 07:17:45;;;;;;;8.73;1.77;;;;;;;;;;5076410;28;20056;-86
2021/07/17 07:20:13;;;;;;;8.77;2.25;;;;;;;;;;5074486;28;20118;-87
2021/07/17 07:22:40;;;;;;;12.02;2.00;;;;;;;;;;5078067;28;20162;-85
2021/07/17 07:25:08;;;;;;;6.72;1.80;;;;;;;;;;5079483;28;20143;-86
2021/07/17 07:27:35;;;;;;;11.00;2.00;;;;;;;;;;5077661;28;20254;-86
2021/07/17 07:30:03;;;;;;;10.68;1.65;;;;;;;;;;5096327;28;20381;-86
2021/07/17 07:32:44;;;;;;;8.50;1.63;;;;;;;;;;5082532;28;20058;-86
2021/07/17 07:35:11;;;;;;;7.82;1.73;;;;;;;;;;5072702;28;20041;-86
2021/07/17 07:37:38;;;;;;;7.13;1.60;;;;;;;;;;5074754;28;20059;-86
2021/07/17 07:40:05;;;;;;;7.57;2.00;;;;;;;;;;5058076;28;20056;-86
2021/07/17 07:42:35;;;;;;;9.95;1.83;;;;;;;;;;5073801;28;20103;-87
2021/07/17 07:45:03;;;;;;;5.95;1.70;;;;;;;;;;5054712;28;20064;-87
2021/07/17 07:47:30;;;;;;;7.90;1.83;;;;;;;;;;5073238;28;20400;-87
2021/07/17 07:50:05;;;;;;;6.55;1.50;;;;;;;;;;5055161;28;20048;-87
2021/07/17 07:52:35;;;;;;;5.53;1.45;;;;;;;;;;5078770;28;20052;-88
2021/07/17 07:55:17;;;;;;;6.78;1.42;;;;;;;;;;5073894;28;20060;-86
2021/07/17 07:57:45;;;;;;;11.50;2.05;;;;;;;;;;5056526;28;20252;-87
2021/07/17 08:00:13;;;;;;;5.60;1.58;;;;;;;;;;5045412;28;20073;-88
2021/07/17 08:02:51;;;;;;;7.50;2.05;;;;;;;;;;5045858;28;20106;-87
2021/07/17 08:05:29;;;;;;;5.50;1.70;;;;;;;;;;5057559;28;20052;-87
2021/07/17 08:07:57;;;;;;;9.90;1.60;;;;;;;;;;5056059;28;20071;-86
2021/07/17 08:10:27;;;;;;;8.82;1.73;;;;;;;;;;5058360;28;20040;-87
2021/07/17 08:12:54;;;;;;;10.40;2.05;;;;;;;;;;5055764;28;20052;-87
2021/07/17 08:15:41;;;;;;;7.50;2.00;;;;;;;;;;5068077;28;20134;-88
2021/07/17 08:18:08;;;;;;;9.90;2.33;;;;;;;;;;5076203;28;20062;-87
2021/07/17 08:20:40;;;;;;;8.75;1.98;;;;;;;;;;5058459;28;20044;-87
2021/07/17 08:23:09;;;;;;;10.70;2.20;;;;;;;;;;5052269;28;20063;-88
2021/07/17 08:25:39;;;;;;;5.80;1.80;;;;;;;;;;5058925;28;20200;-87
2021/07/17 08:28:10;;;;;;;7.55;1.95;;;;;;;;;;5068716;28;20120;-87
2021/07/17 08:30:39;;;;;;;9.45;1.95;;;;;;;;;;5052499;28;20049;-87
2021/07/17 08:33:06;;;;;;;8.73;2.05;;;;;;;;;;5060485;28;20139;-87
2021/07/17 08:35:32;;;;;;;6.55;2.20;;;;;;;;;;5071152;28;20322;-88
2021/07/17 08:38:03;;;;;;;5.35;1.42;;;;;;;;;;5069372;28;20060;-87
2021/07/17 08:40:33;;;;;;;10.25;2.63;;;;;;;;;;5073809;28;20443;-87
2021/07/17 08:43:09;;;;;;;8.63;2.22;;;;;;;;;;5082686;28;20036;-88
2021/07/17 08:45:58;;;;;;;6.60;1.77;;;;;;;;;;5082081;28;20131;-87
2021/07/17 08:48:26;;;;;;;11.95;2.25;;;;;;;;;;5070488;28;20095;-87
2021/07/17 08:51:09;;;;;;;10.30;2.58;;;;;;;;;;5070587;28;20067;-87
2021/07/17 08:54:07;;;;;;;7.07;2.08;;;;;;;;;;5068101;28;20732;-88
2021/07/17 08:56:53;;;;;;;5.47;1.40;;;;;;;;;;5071796;28;20045;-88
2021/07/17 08:59:55;;;;;;;;;;;;;;;;;;;;;
2021/07/17 09:03:17;;;;;;;;;;;;;;;;;;;;;
2021/07/17 09:06:20;;;;;;;8.63;2.10;;;;;;;;;;5068479;28;20541;-87
2021/07/17 09:09:30;;;;;;;7.45;1.90;;;;;;;;;;5078365;28;20056;-88
2021/07/17 09:19:13;;;;;;;9.70;1.80;;;;;;;;;;5060390;28;20083;-87
2021/07/17 09:22:08;;;;;;;7.68;1.70;;;;;;;;;;5073628;28;20151;-87
2021/07/17 09:25:13;;;;;;;7.93;1.83;;;;;;;;;;5067936;28;20048;-86
2021/07/17 09:27:47;;;;;;;7.88;1.70;;;;;;;;;;5084115;28;20075;-87
2021/07/17 09:30:36;;;;;;;7.60;1.70;;;;;;;;;;5064204;28;20192;-87
2021/07/17 09:33:57;;;;;;;7.40;1.60;;;;;;;;;;5067862;28;20048;-87
2021/07/17 09:40:00;;;;;;;6.90;1.98;;;;;;;;;;5047777;28;20116;-87
2021/07/17 09:42:48;;;;;;;11.85;2.20;;;;;;;;;;5073669;28;20044;-87
2021/07/17 09:46:01;;;;;;;10.48;2.10;;;;;;;;;;5071393;28;20180;-87
2021/07/17 09:59:23;;;;;;;10.45;1.65;;;;;;;;;;5037896;28;20036;-86
2021/07/17 10:02:09;;;;;;;9.15;1.63;;;;;;;;;;5071468;28;20549;-86
2021/07/17 10:05:08;;;;;;;9.07;1.30;;;;;;;;;;5072168;28;20083;-86
2021/07/17 10:08:15;;;;;;;8.13;1.50;;;;;;;;;;5078827;28;20104;-87
2021/07/17 10:11:12;;;;;;;5.88;1.33;;;;;;;;;;5068196;28;20417;-87
2021/07/17 10:14:22;;;;;;;7.55;1.35;;;;;;;;;;5061935;28;20044;-87
2021/07/17 10:17:07;;;;;;;6.20;1.40;;;;;;;;;;5072749;28;20068;-87
2021/07/17 10:20:25;;;;;;;4.70;1.13;;;;;;;;;;5070312;28;20054;-87
2021/07/17 10:23:02;;;;;;;6.25;1.20;;;;;;;;;;5071759;28;20099;-87
2021/07/17 10:25:50;;;;;;;10.57;1.23;;;;;;;;;;5072580;28;20416;-88
2021/07/17 10:29:07;;;;;;;3.92;1.13;;;;;;;;;;5071947;28;20052;-88
2021/07/17 10:32:41;;;;;;;8.60;1.65;;;;;;;;;;5085155;28;20298;-87
2021/07/17 10:35:30;;;;;;;5.53;1.35;;;;;;;;;;4973735;28;20173;-88
2021/07/17 10:42:12;;;;;;;7.75;1.17;;;;;;;;;;5057998;28;20075;-86
2021/07/17 10:48:38;;;;;;;3.75;1.30;;;;;;;;;;5053971;28;20079;-87
2021/07/17 10:52:08;;;;;;;5.15;1.17;;;;;;;;;;5065796;28;20052;-87
2021/07/17 10:54:56;;;;;;;6.18;1.65;;;;;;;;;;5025800;28;20037;-87
2021/07/17 10:57:43;;;;;;;6.97;1.02;;;;;;;;;;5028488;28;20081;-87
2021/07/17 11:00:16;;;;;;;3.75;1.25;;;;;;;;;;5076466;28;20132;-88
2021/07/17 11:03:12;;;;;;;5.78;1.27;;;;;;;;;;5073281;28;20085;-88
2021/07/17 11:05:38;;;;;;;;;;;;;;;;;;5076216;28;20052;-88
2021/07/17 11:08:05;;;;;;;5.22;1.10;;;;;;;;;;5071958;28;19924;-86
2021/07/17 11:10:40;;;;;;;6.45;1.20;;;;;;;;;;5073123;28;20049;-87
2021/07/17 11:13:07;;;;;;;4.90;1.10;;;;;;;;;;5070553;28;20087;-86
2021/07/17 11:15:34;;;;;;;5.93;1.13;;;;;;;;;;5072055;28;20049;-86
2021/07/17 11:18:17;;;;;;;6.88;1.08;;;;;;;;;;5071684;28;20061;-86
2021/07/17 11:20:44;;;;;;;5.03;1.02;;;;;;;;;;5068687;28;20416;-87
2021/07/17 11:23:13;;;;;;;7.53;1.00;;;;;;;;;;5069223;28;20060;-87
2021/07/17 11:25:57;;;;;;;4.72;1.20;;;;;;;;;;5067632;28;20048;-87
2021/07/17 11:28:42;;;;;;;6.07;1.60;;;;;;;;;;5068964;28;20415;-87
2021/07/17 11:31:27;;;;;;;5.68;1.27;;;;;;;;;;5070344;28;20135;-87
2021/07/17 11:34:12;;;;;;;3.72;1.33;;;;;;;;;;5066971;28;20048;-87
2021/07/17 11:36:39;;;;;;;6.55;1.58;;;;;;;;;;5069533;28;20112;-87
2021/07/17 11:39:06;;;;;;;5.55;1.35;;;;;;;;;;5074394;28;20048;-88
2021/07/17 11:41:33;;;;;;;3.83;1.13;;;;;;;;;;5080822;28;20053;-87
2021/07/17 11:44:00;;;;;;;4.85;0.88;;;;;;;;;;5057781;28;20666;-87
2021/07/17 11:46:27;;;;;;;4.40;0.90;;;;;;;;;;5052964;28;20091;-87
2021/07/17 11:49:01;;;;;;;6.35;1.20;;;;;;;;;;5069700;28;20044;-88
2021/07/17 11:51:28;;;;;;;4.07;1.38;;;;;;;;;;5061815;28;20101;-88
2021/07/17 11:54:02;;;;;;;4.90;1.05;;;;;;;;;;5067193;28;20139;-87
2021/07/17 11:56:29;;;;;;;4.65;1.10;;;;;;;;;;5066780;28;20041;-86
2021/07/17 11:59:15;;;;;;;6.63;1.25;;;;;;;;;;5069563;28;20360;-87
2021/07/17 12:02:01;;;;;;;4.32;1.30;;;;;;;;;;5072806;28;20095;-87
2021/07/17 12:04:30;;;;;;;7.20;1.30;;;;;;;;;;5084626;28;20048;-87
2021/07/17 12:07:00;;;;;;;4.85;1.45;;;;;;;;;;5085573;28;20063;-87
2021/07/17 12:09:42;;;;;;;4.63;1.08;;;;;;;;;;5071489;28;20080;-87
2021/07/17 12:12:11;;;;;;;10.60;1.60;;;;;;;;;;5069746;28;20059;-87
2021/07/17 12:14:38;;;;;;;6.55;1.00;;;;;;;;;;5068468;28;20094;-87
2021/07/17 12:17:08;;;;;;;4.32;1.10;;;;;;;;;;5069061;28;20321;-87
2021/07/17 12:19:35;;;;;;;10.68;1.40;;;;;;;;;;5063751;28;20189;-87
2021/07/17 12:22:02;;;;;;;4.97;1.00;;;;;;;;;;5057809;28;20053;-87
2021/07/17 12:24:32;;;;;;;6.15;1.30;;;;;;;;;;5048155;28;20397;-88
2021/07/17 12:27:03;;;;;;;3.20;1.10;;;;;;;;;;5048718;28;20049;-88
2021/07/17 12:29:30;;;;;;;8.57;1.40;;;;;;;;;;5048640;28;20083;-87
2021/07/17 12:32:01;;;;;;;6.63;1.25;;;;;;;;;;5064776;28;20049;-87
2021/07/17 12:34:28;;;;;;;2.50;1.00;;;;;;;;;;5066892;28;20060;-87
2021/07/17 12:36:55;;;;;;;4.35;1.40;;;;;;;;;;5049931;28;20352;-87
2021/07/17 12:39:22;;;;;;;5.50;0.90;;;;;;;;;;5067100;28;20066;-87
2021/07/17 12:49:22;;;;;;;7.00;1.48;;;;;;;;;;5066982;28;20052;-85
2021/07/17 12:56:02;;;;;;;;;;;;;;;;;;;;;
2021/07/17 12:59:26;;;;;;;3.92;0.80;;;;;;;;;;4951339;28;20146;-86
2021/07/17 13:12:49;;;;;;;;;;;;;;;;;;;;;
2021/07/17 13:36:35;;;;;;;;;;;;;;;;;;;;;
2021/07/17 13:39:47;;;;;;;7.90;1.52;;;;;;;;;;4801730;29;20069;-86
2021/07/17 13:45:32;;;;;;;3.85;1.13;;;;;;;;;;4893291;29;20092;-86
2021/07/17 13:48:57;;;;;;;7.18;1.27;;;;;;;;;;4970687;28;20116;-86
2021/07/17 13:55:04;;;;;;;16.70;1.27;;;;;;;;;;4948447;29;20055;-86
2021/07/17 13:58:15;;;;;;;2.80;0.90;;;;;;;;;;4916858;29;20047;-86
2021/07/17 14:04:58;;;;;;;6.32;0.90;;;;;;;;;;4933506;29;20047;-86
2021/07/17 14:08:07;;;;;;;;;;;;;;;;;;;;;
2021/07/17 14:11:42;;;;;;;6.78;0.98;;;;;;;;;;4973026;28;20658;-87
2021/07/17 14:14:23;;;;;;;6.88;0.88;;;;;;;;;;4968145;28;20051;-87
2021/07/17 14:27:48;;;;;;;5.47;0.90;;;;;;;;;;5555874;22;17917237;-86
2021/07/17 14:33:48;;;;;;;4.20;0.95;;;;;;;;;;6342741;22;20027;-87
2021/07/17 14:39:21;;;;;;;6.18;1.20;;;;;;;;;;6332501;22;20023;-86
2021/07/17 14:41:59;;;;;;;4.78;1.23;;;;;;;;;;6313455;22;20296;-87
2021/07/17 14:44:39;;;;;;;5.13;1.10;;;;;;;;;;6307672;22;20114;-86
2021/07/17 14:47:06;;;;;;;3.10;1.10;;;;;;;;;;6335102;22;20030;-87
2021/07/17 14:49:33;;;;;;;4.40;0.80;;;;;;;;;;6308313;22;20054;-85
2021/07/17 14:52:02;;;;;;;5.15;1.38;;;;;;;;;;6308786;22;20037;-85
2021/07/17 14:54:29;;;;;;;3.45;0.70;;;;;;;;;;6337420;22;20027;-87
2021/07/17 14:56:56;;;;;;;3.08;0.73;;;;;;;;;;6309866;22;20023;-86
2021/07/17 14:59:24;;;;;;;3.30;1.00;;;;;;;;;;6309569;22;20023;-86
2021/07/17 15:01:54;;;;;;;3.25;1.02;;;;;;;;;;6310645;22;20023;-86
2021/07/17 15:04:21;;;;;;;8.80;1.13;;;;;;;;;;6339940;22;20132;-86
2021/07/17 15:06:48;;;;;;;5.38;1.20;;;;;;;;;;6311891;22;20153;-86
2021/07/17 15:09:14;;;;;;;3.40;0.85;;;;;;;;;;6339660;22;20248;-86
2021/07/17 15:11:44;;;;;;;7.85;1.05;;;;;;;;;;6312674;22;20117;-86
2021/07/17 15:14:11;;;;;;;2.78;0.82;;;;;;;;;;6341083;22;20105;-87
2021/07/17 15:16:41;;;;;;;5.13;1.20;;;;;;;;;;6313685;22;20075;-87
2021/07/17 15:19:09;;;;;;;3.97;1.30;;;;;;;;;;6313259;22;20023;-87
2021/07/17 15:21:38;;;;;;;7.88;1.10;;;;;;;;;;6315247;22;20171;-87
2021/07/17 15:24:05;;;;;;;4.32;0.80;;;;;;;;;;6316181;22;20217;-86
2021/07/17 15:26:32;;;;;;;2.30;1.05;;;;;;;;;;6309634;22;20047;-87
2021/07/17 15:29:03;;;;;;;3.83;1.05;;;;;;;;;;6316949;22;20188;-87
2021/07/17 15:31:31;;;;;;;7.20;1.05;;;;;;;;;;6318693;22;20011;-85
2021/07/17 15:34:00;;;;;;;6.15;1.17;;;;;;;;;;6302173;22;20081;-87
2021/07/17 15:36:27;;;;;;;7.05;0.95;;;;;;;;;;6297096;22;20023;-87
2021/07/17 15:38:53;;;;;;;5.35;0.90;;;;;;;;;;6299252;22;20043;-87
2021/07/17 15:41:20;;;;;;;5.18;1.38;;;;;;;;;;6299867;22;20055;-87
2021/07/17 15:43:47;;;;;;;7.60;1.55;;;;;;;;;;6299013;22;20023;-87
2021/07/17 15:46:13;;;;;;;8.65;1.25;;;;;;;;;;6297340;22;20023;-87
2021/07/17 15:48:40;;;;;;;5.72;1.80;;;;;;;;;;6299631;22;20368;-87
2021/07/17 15:51:09;;;;;;;7.68;1.02;;;;;;;;;;6308406;22;20011;-87
2021/07/17 15:53:36;;;;;;;6.78;1.15;;;;;;;;;;6312234;22;20057;-86
2021/07/17 15:56:03;;;;;;;4.57;1.20;;;;;;;;;;6313888;22;20031;-86
2021/07/17 15:58:33;;;;;;;4.85;1.50;;;;;;;;;;6314288;22;20124;-86
2021/07/17 16:00:59;;;;;;;4.10;1.15;;;;;;;;;;6310591;22;20023;-86
2021/07/17 16:03:26;;;;;;;5.15;1.30;;;;;;;;;;6312427;22;20208;-86
2021/07/17 16:05:53;;;;;;;5.07;1.42;;;;;;;;;;6302895;22;20031;-86
2021/07/17 16:08:19;;;;;;;2.78;0.90;;;;;;;;;;6298887;22;20281;-86
2021/07/17 16:10:46;;;;;;;4.70;1.63;;;;;;;;;;6301719;22;20073;-85
2021/07/17 16:13:13;;;;;;;5.85;1.40;;;;;;;;;;6298434;22;20031;-85
2021/07/17 16:15:45;;;;;;;2.53;1.20;;;;;;;;;;6300019;22;20019;-87
2021/07/17 16:18:13;;;;;;;3.38;0.90;;;;;;;;;;6301153;22;20027;-87
2021/07/17 16:20:40;;;;;;;7.35;1.70;;;;;;;;;;6301825;22;20023;-86
2021/07/17 16:23:09;;;;;;;3.60;1.75;;;;;;;;;;6303165;22;20024;-85
2021/07/17 16:25:36;;;;;;;4.10;1.38;;;;;;;;;;6302367;22;20038;-86
2021/07/17 16:28:06;;;;;;;3.78;0.98;;;;;;;;;;6305730;22;20027;-86
2021/07/17 16:30:33;;;;;;;3.42;1.33;;;;;;;;;;6303129;22;20029;-85
2021/07/17 16:33:00;;;;;;;4.88;1.15;;;;;;;;;;6333973;22;20031;-86
2021/07/17 16:35:27;;;;;;;4.78;1.23;;;;;;;;;;6307982;22;20031;-86
2021/07/17 16:37:54;;;;;;;2.88;1.33;;;;;;;;;;6306785;22;20408;-86
2021/07/17 16:40:20;;;;;;;5.75;1.40;;;;;;;;;;6302528;22;20084;-86
2021/07/17 16:42:47;;;;;;;5.18;1.77;;;;;;;;;;6302735;22;20046;-86
2021/07/17 16:45:15;;;;;;;3.47;1.40;;;;;;;;;;6306801;22;20085;-85
2021/07/17 16:47:43;;;;;;;5.38;1.50;;;;;;;;;;6335714;22;20022;-86
2021/07/17 16:50:14;;;;;;;7.90;1.45;;;;;;;;;;6307939;22;20046;-86
2021/07/17 16:52:42;;;;;;;5.65;1.45;;;;;;;;;;6312835;22;20038;-86
2021/07/17 16:55:09;;;;;;;10.45;3.75;;;;;;;;;;6324947;22;20006;-85
2021/07/17 16:57:43;;;;;;;6.32;2.53;;;;;;;;;;6326420;22;20021;-85
2021/07/17 17:00:10;;;;;;;12.70;4.00;;;;;;;;;;6327341;22;20049;-85